Terminal Aerodrome Forecast
Issued by NWS

Home | Current Version | Previous Version | Text Only | Print | Product List | Glossary On
Versions: 1 2 3 4 5 6 7 8 9 10 11 12 13 14 15 16 17 18 19 20
399
FTAK31 PAJN 171901 AAA
TAFAPG
TAF AMD
PAPG 171901Z 1719/1818 VRB03KT 3SM BR SCT001 BKN050
      TEMPO 1719/1723 1/2SM FG OVC001
     FM172300 VRB04KT P6SM OVC030
     FM180300 15004KT P6SM VCSH BKN020 OVC030
     FM180600 12004KT 4SM -RA BR OVC020
      AMD LTD TO CLD VIS AND WIND 1806/1815=

USA.gov is the U.S. government's official web portal to all federal, state and local government web resources and services.